createdAt,value
2023-03-24T00:02:43.064Z,50.91
2023-03-24T00:05:46.265Z,50.86
2023-03-24T00:08:49.412Z,50.93
2023-03-24T00:11:52.464Z,51.15
2023-03-24T00:14:55.691Z,51.08
2023-03-24T00:17:59.218Z,51.09
2023-03-24T00:21:02.251Z,51.12
2023-03-24T00:24:09.408Z,51.18
2023-03-24T00:27:17.615Z,51.23
2023-03-24T00:30:21.097Z,51.06
2023-03-24T00:33:25.368Z,51.19
2023-03-24T00:36:29.584Z,51.25
2023-03-24T00:39:33.348Z,51.29
2023-03-24T00:42:37.045Z,51.30
2023-03-24T00:45:46.248Z,51.50
2023-03-24T00:48:51.227Z,51.53
2023-03-24T00:51:54.332Z,51.46
2023-03-24T00:54:58.349Z,51.51
2023-03-24T00:58:02.712Z,51.56
2023-03-24T01:01:06.882Z,51.69
2023-03-24T01:04:10.624Z,51.63
2023-03-24T01:07:18.282Z,51.74
2023-03-24T01:10:26.505Z,51.83
2023-03-24T01:13:30.362Z,51.93
2023-03-24T01:16:33.432Z,51.92
2023-03-24T01:19:36.510Z,52.03
2023-03-24T01:22:40.403Z,52.20
2023-03-24T01:25:45.513Z,52.33
2023-03-24T01:28:48.565Z,52.39
2023-03-24T01:31:51.837Z,52.51
2023-03-24T01:34:54.834Z,52.50
2023-03-24T01:37:58.902Z,52.62
2023-03-24T01:41:02.782Z,52.62
2023-03-24T01:44:24.354Z,52.65
2023-03-24T01:47:27.522Z,52.63
2023-03-24T01:50:31.535Z,52.72
2023-03-24T01:53:37.376Z,52.87
2023-03-24T01:56:42.923Z,52.69
2023-03-24T01:59:48.563Z,52.75
2023-03-24T02:03:18.459Z,52.97
2023-03-24T02:06:26.267Z,52.83
2023-03-24T02:09:29.985Z,52.91
2023-03-24T02:12:33.650Z,52.96
2023-03-24T02:15:58.221Z,52.92
2023-03-24T02:19:15.045Z,52.99
2023-03-24T02:22:18.213Z,52.99
2023-03-24T02:25:37.779Z,52.98
2023-03-24T02:28:41.161Z,53.07
2023-03-24T02:31:54.987Z,53.04
2023-03-24T02:35:18.262Z,53.10
2023-03-24T02:38:39.785Z,53.14
2023-03-24T02:41:54.061Z,53.18
2023-03-24T02:45:16.611Z,53.20
2023-03-24T02:48:22.861Z,53.20
2023-03-24T02:51:44.312Z,53.25
2023-03-24T02:54:55.792Z,53.14
2023-03-24T02:58:03.618Z,53.29
2023-03-24T03:01:32.787Z,53.28
2023-03-24T03:05:03.381Z,53.37
2023-03-24T03:08:09.472Z,53.33
2023-03-24T03:11:14.404Z,53.49
2023-03-24T03:14:20.539Z,53.43
2023-03-24T03:17:30.653Z,53.37
2023-03-24T03:20:38.454Z,53.31
2023-03-24T03:23:45.898Z,53.45
2023-03-24T03:26:50.109Z,53.36
2023-03-24T03:29:54.890Z,53.46
2023-03-24T03:33:03.590Z,53.62
2023-03-24T03:36:10.841Z,53.78
2023-03-24T03:39:22.461Z,53.66
2023-03-24T03:42:25.784Z,53.86
2023-03-24T03:45:29.259Z,53.93
2023-03-24T03:48:32.800Z,54.03
2023-03-24T03:51:35.975Z,54.08
2023-03-24T03:54:40.354Z,54.11
2023-03-24T03:57:43.553Z,54.26
2023-03-24T04:00:55.968Z,54.35
2023-03-24T04:04:33.332Z,54.55
2023-03-24T04:08:05.920Z,54.65
2023-03-24T04:11:31.789Z,54.77
2023-03-24T04:15:02.177Z,55.03
2023-03-24T04:18:05.173Z,55.27
2023-03-24T04:21:33.525Z,55.51
2023-03-24T04:24:41.002Z,55.63
2023-03-24T04:27:46.482Z,55.82
2023-03-24T04:30:56.117Z,56.09
2023-03-24T04:34:05.314Z,56.08
2023-03-24T04:37:12.474Z,56.19
2023-03-24T04:40:33.633Z,56.28
2023-03-24T04:43:37.474Z,56.49
2023-03-24T04:46:42.035Z,56.44
2023-03-24T04:49:51.953Z,56.57
2023-03-24T04:52:56.545Z,56.62
2023-03-24T04:56:02.531Z,56.65
2023-03-24T04:59:24.544Z,56.89
2023-03-24T05:02:27.526Z,57.00
2023-03-24T05:05:36.766Z,56.97
2023-03-24T05:08:40.679Z,57.14
2023-03-24T05:11:44.229Z,57.35
2023-03-24T05:14:47.254Z,57.45
2023-03-24T05:17:51.750Z,57.56
2023-03-24T05:20:55.145Z,57.73
2023-03-24T05:23:58.240Z,57.71
2023-03-24T05:27:01.366Z,57.96
2023-03-24T05:30:06.439Z,57.99
2023-03-24T05:33:09.922Z,58.16
2023-03-24T05:36:12.954Z,58.40
2023-03-24T05:39:16.675Z,58.49
2023-03-24T05:42:26.307Z,58.64
2023-03-24T05:45:30.391Z,58.83
2023-03-24T05:48:33.981Z,58.90
2023-03-24T05:51:52.071Z,59.06
2023-03-24T05:54:55.088Z,59.11
2023-03-24T05:58:04.904Z,59.32
2023-03-24T06:01:29.002Z,59.40
2023-03-24T06:04:36.652Z,59.64
2023-03-24T06:07:45.090Z,59.74
2023-03-24T06:10:48.532Z,59.94
2023-03-24T06:13:51.815Z,60.18
2023-03-24T06:16:59.303Z,60.42
2023-03-24T06:20:05.721Z,60.49
2023-03-24T06:23:35.697Z,60.50
2023-03-24T06:26:50.098Z,60.87
2023-03-24T06:29:53.408Z,60.92
2023-03-24T06:32:57.396Z,60.96
2023-03-24T06:36:01.931Z,60.96
2023-03-24T06:39:06.167Z,61.01
2023-03-24T06:42:09.385Z,61.08
2023-03-24T06:45:12.437Z,60.93
2023-03-24T06:48:15.579Z,61.11
2023-03-24T06:51:18.703Z,61.22
2023-03-24T06:54:22.321Z,61.31
2023-03-24T06:57:25.451Z,61.22
2023-03-24T07:00:55.327Z,61.21
2023-03-24T07:04:25.816Z,61.37
2023-03-24T07:08:23.532Z,61.38
2023-03-24T07:11:12.706Z,61.45
2023-03-24T07:14:22.180Z,61.47
2023-03-24T07:17:25.700Z,61.48
2023-03-24T07:20:51.767Z,61.47
2023-03-24T07:23:56.868Z,61.55
2023-03-24T07:27:12.379Z,61.75
2023-03-24T07:30:15.562Z,61.72
2023-03-24T07:33:20.929Z,61.75
2023-03-24T07:36:23.904Z,61.73
2023-03-24T07:39:28.007Z,61.82
2023-03-24T07:42:31.551Z,61.86
2023-03-24T07:45:53.102Z,61.79
2023-03-24T07:48:58.081Z,61.65
2023-03-24T07:52:06.651Z,61.67
2023-03-24T07:55:13.878Z,61.50
2023-03-24T07:58:35.430Z,61.35
2023-03-24T08:01:54.877Z,61.38
2023-03-24T08:05:29.724Z,61.49
2023-03-24T08:08:55.779Z,61.14
2023-03-24T08:12:00.591Z,61.13
2023-03-24T08:15:10.227Z,60.98
2023-03-24T08:18:13.256Z,60.84
2023-03-24T08:21:16.672Z,60.61
2023-03-24T08:24:20.039Z,60.67
2023-03-24T08:27:23.537Z,60.55
2023-03-24T08:30:28.322Z,60.27
2023-03-24T08:33:32.060Z,60.01
2023-03-24T08:36:35.109Z,59.75
2023-03-24T08:39:38.380Z,59.64
2023-03-24T08:42:41.581Z,59.76
2023-03-24T08:45:44.546Z,59.60
2023-03-24T08:48:47.517Z,59.56
2023-03-24T08:51:50.807Z,59.40
2023-03-24T08:54:54.064Z,59.23
2023-03-24T08:57:57.609Z,59.01
2023-03-24T09:01:01.656Z,58.91
2023-03-24T09:04:05.562Z,58.82
2023-03-24T09:07:09.277Z,58.80
2023-03-24T09:10:12.797Z,58.66
2023-03-24T09:13:16.625Z,58.39
2023-03-24T09:16:20.045Z,58.24
2023-03-24T09:19:23.102Z,57.88
2023-03-24T09:22:26.067Z,57.67
2023-03-24T09:25:29.057Z,57.38
2023-03-24T09:28:32.118Z,56.95
2023-03-24T09:31:35.099Z,56.58
2023-03-24T09:34:38.414Z,56.34
2023-03-24T09:37:43.397Z,55.89
2023-03-24T09:42:54.510Z,55.34
2023-03-24T09:46:00.576Z,54.99
2023-03-24T09:49:05.184Z,54.85
2023-03-24T09:52:12.679Z,54.78
2023-03-24T09:55:25.326Z,54.47
2023-03-24T09:58:31.433Z,54.17
2023-03-24T10:01:36.415Z,53.80
2023-03-24T10:04:39.651Z,53.60
2023-03-24T10:07:57.053Z,53.41
2023-03-24T10:11:54.343Z,53.20
2023-03-24T10:14:57.496Z,53.05
2023-03-24T10:18:11.085Z,52.99
2023-03-24T10:21:25.998Z,52.92
2023-03-24T10:25:08.280Z,52.83
2023-03-24T10:28:49.824Z,52.70
2023-03-24T10:32:24.731Z,52.65
2023-03-24T10:35:33.173Z,52.53
2023-03-24T10:38:37.010Z,52.52
2023-03-24T10:41:42.383Z,52.59
2023-03-24T10:44:48.915Z,52.39
2023-03-24T10:47:54.873Z,52.54
2023-03-24T10:50:59.026Z,52.76
2023-03-24T10:54:22.870Z,52.59
2023-03-24T10:57:27.530Z,52.48
2023-03-24T11:00:32.441Z,52.17
2023-03-24T11:03:38.113Z,51.91
2023-03-24T11:06:57.360Z,51.62
2023-03-24T11:10:27.404Z,51.29
2023-03-24T11:13:34.881Z,50.80
2023-03-24T11:16:43.676Z,50.65
2023-03-24T11:19:54.885Z,50.37
2023-03-24T11:23:07.129Z,50.14
2023-03-24T11:26:59.009Z,49.84
2023-03-24T11:30:02.336Z,49.69
2023-03-24T11:33:05.625Z,49.39
2023-03-24T11:36:30.537Z,49.06
2023-03-24T11:39:35.468Z,48.85
2023-03-24T11:42:46.043Z,48.76
2023-03-24T11:46:01.233Z,48.39
2023-03-24T11:49:06.841Z,48.21
2023-03-24T11:52:21.399Z,47.79
2023-03-24T11:56:12.093Z,47.41
2023-03-24T11:59:31.573Z,47.32
2023-03-24T12:03:07.386Z,47.31
2023-03-24T12:06:34.082Z,47.09
2023-03-24T12:09:57.474Z,46.94
2023-03-24T12:13:29.963Z,46.84
2023-03-24T12:16:53.873Z,46.77
2023-03-24T12:20:09.225Z,46.88
2023-03-24T12:23:20.559Z,47.10
2023-03-24T12:26:31.097Z,46.86
2023-03-24T12:30:30.843Z,46.97
2023-03-24T12:34:24.532Z,46.97
2023-03-24T12:38:05.959Z,46.95
2023-03-24T12:41:44.194Z,47.00
2023-03-24T12:45:10.456Z,47.21
2023-03-24T12:48:31.926Z,47.42
2023-03-24T12:51:57.617Z,47.46
2023-03-24T12:55:10.449Z,47.43
2023-03-24T12:58:43.892Z,47.55
2023-03-24T13:01:55.839Z,47.68
2023-03-24T13:05:07.178Z,47.77
2023-03-24T13:08:18.700Z,47.90
2023-03-24T13:11:33.784Z,47.82
2023-03-24T13:15:00.084Z,48.08
2023-03-24T13:18:09.544Z,47.98
2023-03-24T13:21:21.675Z,48.15
2023-03-24T13:24:26.308Z,48.20
2023-03-24T13:27:36.446Z,48.34
2023-03-24T13:30:42.214Z,48.40
2023-03-24T13:33:45.986Z,48.46
2023-03-24T13:36:53.014Z,48.72
2023-03-24T13:40:00.225Z,48.89
2023-03-24T13:43:18.762Z,48.95
2023-03-24T13:46:22.280Z,49.19
2023-03-24T13:49:26.321Z,49.33
2023-03-24T13:52:37.666Z,49.34
2023-03-24T13:55:49.567Z,49.52
2023-03-24T13:58:55.752Z,49.43
2023-03-24T14:02:17.681Z,49.72
2023-03-24T14:05:26.665Z,49.87
2023-03-24T14:08:55.923Z,50.02
2023-03-24T14:11:59.064Z,49.91
2023-03-24T14:15:41.250Z,49.85
2023-03-24T14:18:44.555Z,50.03
2023-03-24T14:22:10.640Z,50.04
2023-03-24T14:25:16.611Z,50.19
2023-03-24T14:28:31.907Z,50.35
2023-03-24T14:31:36.665Z,50.48
2023-03-24T14:34:51.237Z,50.68
2023-03-24T14:38:00.045Z,50.90
2023-03-24T14:41:13.002Z,50.93
2023-03-24T14:44:45.045Z,51.07
2023-03-24T14:47:48.782Z,51.12
2023-03-24T14:50:54.400Z,51.24
2023-03-24T14:53:58.476Z,51.29
2023-03-24T14:57:03.212Z,51.10
2023-03-24T15:00:15.902Z,51.03
2023-03-24T15:03:24.252Z,50.77
2023-03-24T15:06:27.706Z,50.19
2023-03-24T15:09:30.892Z,49.93
2023-03-24T15:12:34.266Z,49.83
2023-03-24T15:15:37.503Z,49.53
2023-03-24T15:22:05.976Z,49.23
2023-03-24T15:25:10.256Z,49.38
2023-03-24T15:28:28.997Z,49.43
2023-03-24T15:31:33.101Z,49.50
2023-03-24T15:34:41.069Z,49.71
2023-03-24T15:37:48.482Z,49.81
2023-03-24T15:40:57.867Z,49.86
2023-03-24T15:44:01.093Z,50.08
2023-03-24T15:47:06.354Z,49.96
2023-03-24T15:50:33.802Z,50.17
2023-03-24T15:53:49.515Z,50.35
2023-03-24T15:57:12.296Z,50.55
2023-03-24T16:00:24.757Z,50.75
2023-03-24T16:03:30.555Z,51.04
2023-03-24T16:06:36.184Z,51.35
2023-03-24T16:09:41.054Z,51.52
2023-03-24T16:12:44.222Z,51.58
2023-03-24T16:16:13.582Z,51.63
2023-03-24T16:19:16.815Z,51.65
2023-03-24T16:22:19.946Z,51.85
2023-03-24T16:25:23.452Z,52.17
2023-03-24T16:28:27.739Z,52.21
2023-03-24T16:31:33.633Z,52.43
2023-03-24T16:34:37.252Z,52.85
2023-03-24T16:37:42.117Z,52.99
2023-03-24T16:40:49.199Z,53.10
2023-03-24T16:43:55.550Z,53.40
2023-03-24T16:47:02.032Z,53.45
2023-03-24T16:50:26.108Z,53.62
2023-03-24T16:53:29.192Z,53.87
2023-03-24T16:56:32.385Z,53.80
2023-03-24T16:59:35.562Z,54.05
2023-03-24T17:02:39.938Z,54.31
2023-03-24T17:05:53.085Z,54.21
2023-03-24T17:08:56.765Z,54.38
2023-03-24T17:12:02.565Z,54.57
2023-03-24T17:15:07.820Z,54.66
2023-03-24T17:18:11.800Z,54.69
2023-03-24T17:21:18.662Z,54.81
2023-03-24T17:24:29.338Z,54.87
2023-03-24T17:27:33.499Z,55.01
2023-03-24T17:30:36.582Z,55.07
2023-03-24T17:33:41.115Z,55.08
2023-03-24T17:36:44.769Z,55.20
2023-03-24T17:39:48.939Z,55.25
2023-03-24T17:42:52.963Z,55.34
2023-03-24T17:46:01.300Z,55.46
2023-03-24T17:49:04.757Z,55.45
2023-03-24T17:52:07.843Z,55.43
2023-03-24T17:55:12.787Z,55.48
2023-03-24T17:58:17.743Z,55.49
2023-03-24T18:01:30.802Z,55.67
2023-03-24T18:04:36.367Z,55.55
2023-03-24T18:07:40.357Z,55.75
2023-03-24T18:10:43.845Z,55.67
2023-03-24T18:13:47.025Z,55.75
2023-03-24T18:16:50.380Z,55.68
2023-03-24T18:19:53.549Z,55.80
2023-03-24T18:22:56.683Z,55.85
2023-03-24T18:26:01.528Z,55.77
2023-03-24T18:29:05.850Z,55.82
2023-03-24T18:32:09.098Z,55.85
2023-03-24T18:35:16.356Z,55.85
2023-03-24T18:38:23.835Z,55.91
2023-03-24T18:41:29.905Z,56.04
2023-03-24T18:44:33.321Z,55.95
2023-03-24T18:47:36.710Z,56.14
2023-03-24T18:50:40.731Z,56.06
2023-03-24T18:53:44.092Z,56.23
2023-03-24T18:56:47.259Z,56.20
2023-03-24T18:59:50.758Z,56.15
2023-03-24T19:02:54.074Z,56.26
2023-03-24T19:06:00.929Z,56.46
2023-03-24T19:09:05.449Z,56.54
2023-03-24T19:12:09.216Z,56.49
2023-03-24T19:15:13.626Z,56.47
2023-03-24T19:18:16.893Z,56.73
2023-03-24T19:21:24.497Z,56.76
2023-03-24T19:24:28.135Z,56.88
2023-03-24T19:27:31.358Z,56.85
2023-03-24T19:30:34.451Z,56.99
2023-03-24T19:33:38.129Z,56.94
2023-03-24T19:36:41.738Z,57.10
2023-03-24T19:39:46.071Z,57.14
2023-03-24T19:42:49.170Z,57.21
2023-03-24T19:45:54.019Z,57.29
2023-03-24T19:48:57.127Z,57.32
2023-03-24T19:52:00.362Z,57.45
2023-03-24T19:55:06.577Z,57.63
2023-03-24T19:58:09.735Z,57.74
2023-03-24T20:01:13.129Z,57.64
2023-03-24T20:04:17.033Z,57.70
2023-03-24T20:07:20.351Z,57.72
2023-03-24T20:10:23.811Z,57.78
2023-03-24T20:13:27.691Z,57.89
2023-03-24T20:16:31.501Z,57.87
2023-03-24T20:19:34.608Z,57.96
2023-03-24T20:22:42.209Z,58.17
2023-03-24T20:25:45.323Z,58.14
2023-03-24T20:28:48.658Z,58.20
2023-03-24T20:31:52.403Z,58.20
2023-03-24T20:34:55.640Z,58.30
2023-03-24T20:37:58.760Z,58.32
2023-03-24T20:41:05.708Z,58.33
2023-03-24T20:44:09.166Z,58.55
2023-03-24T20:47:12.226Z,58.60
2023-03-24T20:50:15.390Z,58.66
2023-03-24T20:53:18.939Z,58.81
2023-03-24T20:56:22.453Z,58.91
2023-03-24T20:59:26.209Z,59.00
2023-03-24T21:02:31.786Z,58.96
2023-03-24T21:05:35.259Z,59.06
2023-03-24T21:08:38.356Z,59.10
2023-03-24T21:11:41.523Z,59.19
2023-03-24T21:14:46.817Z,59.19
2023-03-24T21:17:50.287Z,59.26
2023-03-24T21:20:56.366Z,59.30
2023-03-24T21:24:00.842Z,59.23
2023-03-24T21:27:04.056Z,59.38
2023-03-24T21:30:08.237Z,59.35
2023-03-24T21:33:11.829Z,59.39
2023-03-24T21:36:15.685Z,59.58
2023-03-24T21:39:18.798Z,59.54
2023-03-24T21:42:22.864Z,59.50
2023-03-24T21:45:27.670Z,59.63
2023-03-24T21:48:32.939Z,59.59
2023-03-24T21:51:36.946Z,59.68
2023-03-24T21:54:40.205Z,59.66
2023-03-24T21:57:48.186Z,59.64
2023-03-24T22:00:52.058Z,59.69
2023-03-24T22:03:55.976Z,59.87
2023-03-24T22:06:59.203Z,60.07
2023-03-24T22:10:03.330Z,60.27
2023-03-24T22:13:06.371Z,60.20
2023-03-24T22:16:10.033Z,60.32
2023-03-24T22:19:13.178Z,60.30
2023-03-24T22:22:16.330Z,60.42
2023-03-24T22:25:20.014Z,60.55
2023-03-24T22:28:23.091Z,60.61
2023-03-24T22:31:26.396Z,60.71
2023-03-24T22:34:29.528Z,60.85
2023-03-24T22:37:33.490Z,60.68
2023-03-24T22:40:37.846Z,60.85
2023-03-24T22:43:41.884Z,60.90
2023-03-24T22:46:45.343Z,60.98
2023-03-24T22:49:48.440Z,61.06
2023-03-24T22:52:51.787Z,61.06
2023-03-24T22:55:54.956Z,61.10
2023-03-24T22:58:58.104Z,61.06
2023-03-24T23:02:09.232Z,61.03
2023-03-24T23:05:13.500Z,61.07
2023-03-24T23:08:16.698Z,61.14
2023-03-24T23:11:19.901Z,61.10
2023-03-24T23:14:25.530Z,60.88
2023-03-24T23:17:28.728Z,61.01
2023-03-24T23:20:31.895Z,61.12
2023-03-24T23:23:36.375Z,61.12
2023-03-24T23:26:39.492Z,61.02
2023-03-24T23:29:42.597Z,61.15
2023-03-24T23:32:47.064Z,61.43
2023-03-24T23:35:56.202Z,61.48
2023-03-24T23:38:59.353Z,61.62
2023-03-24T23:42:03.371Z,61.48
2023-03-24T23:45:07.648Z,61.49
2023-03-24T23:48:10.967Z,61.54
2023-03-24T23:51:14.372Z,61.51
2023-03-24T23:54:17.535Z,61.57
2023-03-24T23:57:20.683Z,61.63
